Angelo Coast Range Reserve, California Weather observations

Data are for 10 minute period ending at time listed.
 Day   Time   Solar   Ave.   Ave.  Ave.  Vector  Max.   Baro.   Total    
  of    of     Rad.   Air    Rel.  Wind   Wind   Wind  Press.  Precip.   
Year   Day            Temp.  Hum.  Speed  Dir.   Gust                    
2017   (PST)  Kw/m2    F      %     mph   deg.    mph    mb.     in.     
-------------------------------------------------------------------------
 291   11:30   0.67   74.7    31    1.7   150     6.2   967.4    0.00 
 291   11:40   0.68   75.3    30    3.2   154     7.5   967.3    0.00 
 291   11:50   0.68   76.9    27    3.5   142     7.0   967.2    0.00 
 291   12:00   0.68   77.7    28    3.7   144    10.9   967.1    0.00 
 291   12:10   0.68   78.7    23    4.0   158    10.4   967.0    0.00 
 291   12:20   0.68   78.3    24    2.0   318     5.8   967.0    0.00 
 291   12:30   0.67   78.5    21    3.6   343    10.0   967.0    0.00 
 291   12:40   0.67   77.8    20    8.3   156    15.0   966.9    0.00 
 291   12:50   0.65   77.0    19    9.0   148    14.4   966.8    0.00 
 291   13:00   0.65   78.2    20    5.3   144     9.6   966.7    0.00 
 291   13:10   0.64   78.2    20    3.5   167     9.3   966.7    0.00 
 291   13:20   0.62   78.1    20    2.8   170     6.9   966.7    0.00 
 291   13:30   0.57   78.3    20    2.1   242     7.9   966.6    0.00 
 291   13:40   0.60   78.8    20    1.9     8     5.8   966.5    0.00 
 291   13:50   0.58   78.1    20    1.6   348     7.3   966.4    0.00 
 291   14:00   0.56   77.2    21    2.6    37    10.5   966.3    0.00 
 291   14:10   0.54   76.9    19    1.4    45     4.5   966.3    0.00 
 291   14:20   0.21   76.4    20    1.7   341     4.7   966.2    0.00 
 291   14:30   0.23   75.1    22    0.9   318     2.6   966.1    0.00 
 291   14:40   0.46   75.8    22    2.5   145     7.0   966.0    0.00 
 291   14:50   0.33   75.0    22    1.5   155     5.6   966.0    0.00 
 291   15:00   0.11   72.5    26    2.4   189     7.8   965.9    0.00 
 291   15:10   0.04   70.2    28    1.7   240     4.8   965.6    0.00 
 291   15:20   0.04   70.1    28    1.5   236     3.8   965.5    0.00 
 291   15:30   0.03   69.6    28    1.9   291     3.7   965.3    0.00 
 291   15:40   0.03   69.0    29    1.1   250     2.7   965.1    0.00 
 291   15:50   0.03   68.0    30    0.9   238     3.4   965.1    0.00 
 291   16:00   0.02   66.9    32    1.1   202     3.9   965.0    0.00 
 291   16:10   0.01   65.5    35    0.7   251     2.4   965.0    0.00 
 291   16:20   0.01   65.0    35    1.0   196     4.7   965.0    0.00 
 291   16:30   0.01   64.6    36    1.8   163     7.8   965.1    0.00 
 291   16:40   0.01   65.9    35    4.3   147     8.8   965.1    0.00 
 291   16:50   0.01   66.7    36    4.6   140    10.0   965.1    0.00 
 291   17:00   0.01   65.7    40    4.3   148     8.7   965.1    0.00 
 291   17:10   0.01   64.7    41    2.7   172     5.8   965.1    0.00 
 291   17:20   0.01   63.7    43    3.7   167     6.4   965.0    0.00 
 291   17:30   0.00   62.6    45    1.4   159     5.2   965.0    0.00 
 291   17:40   0.00   60.5    47    0.4   172     1.7   964.9    0.00 
 291   17:50   0.00   59.2    50    0.7   188     1.6   964.9    0.00 
 291   18:00   0.00   57.6    53    0.8   179     2.6   965.0    0.00 
 291   18:10   0.00   56.2    56    0.1   218     1.8   965.1    0.00 
 291   18:20   0.00   55.5    55    0.3   181     1.6   965.1    0.00 
 291   18:30   0.00   55.3    54    1.9   169     2.7   965.2    0.00 
 291   18:40   0.00   54.7    55    1.4   175     2.5   965.4    0.00 
 291   18:50   0.00   54.1    56    1.6   178     2.3   965.4    0.00 
 291   19:00   0.00   53.4    58    1.0   173     2.3   965.3    0.00 
 291   19:10   0.00   52.8    58    0.8   177     1.7   965.4    0.00 
 291   19:20   0.00   52.1    59    1.1   164     2.7   965.5    0.00 
 291   19:30   0.00   51.5    59    1.0   177     3.1   965.5    0.00 
 291   19:40   0.00   50.8    61    0.6   190     1.8   965.4    0.00 
 291   19:50   0.00   50.3    64    0.0   194     0.1   965.4    0.00 
 291   20:00   0.00   49.7    66    0.2   183     1.5   965.5    0.00 
 291   20:10   0.00   49.2    67    1.0   163     2.7   965.5    0.00 
 291   20:20   0.00   48.9    66    0.6   172     2.2   965.6    0.00 
 291   20:30   0.00   48.7    69    0.4   184     1.4   965.5    0.00 
 291   20:40   0.00   48.0    70    0.1   214     1.2   965.5    0.00 
 291   20:50   0.00   47.5    73    0.1   218     1.1   965.2    0.00 
 291   21:00   0.00   46.9    75    0.6   198     2.2   965.2    0.00 
 291   21:10   0.00   46.6    74    2.5   170     3.0   965.3    0.00 
 291   21:20   0.00   46.4    73    0.6   178     2.3   965.3    0.00 
 291   21:30   0.00   46.0    76    1.5   158     4.2   965.4    0.00 
 291   21:40   0.00   47.0    78    2.5   147     5.3   965.5    0.00 
 291   21:50   0.00   46.6    78    1.1   170     3.2   965.5    0.00 
 291   22:00   0.00   46.1    81    1.0   126     4.2   965.5    0.00 
 291   22:10   0.00   45.9    82    1.0   198     2.7   965.5    0.00 
 291   22:20   0.00   45.5    84    1.8   184     3.1   965.4    0.00 
 291   22:30   0.00   45.2    84    1.0   180     2.3   965.5    0.00 
 291   22:40   0.00   44.7    84    0.4   223     1.8   965.5    0.00 
 291   22:50   0.00   44.4    86    0.3   186     1.4   965.5    0.00 
 291   23:00   0.00   44.0    88    1.5   179     3.1   965.6    0.00 
 291   23:10   0.00   43.8    88    1.6   191     2.6   965.7    0.00 
 291   23:20   0.00   43.6    88    2.3   185     3.7   965.8    0.00 
 291   23:30   0.00   43.4    88    0.1   148     1.5   965.8    0.00 
 291   23:40   0.00   43.3    90    0.4   312     1.3   965.8    0.00 
 291   23:50   0.00   43.4    89    0.0     0     0.0   966.0    0.00 
 292    0:00   0.00   43.5    90    0.0     0     0.0   966.0    0.00 
 292    0:10   0.00   43.7    89    0.2   274     1.0   965.9    0.00 
 292    0:20   0.00   43.8    88    0.6   350     1.3   965.9    0.00 
 292    0:30   0.00   43.8    88    0.3     5     1.3   965.8    0.00 
 292    0:40   0.00   43.8    89    0.0     0     0.0   966.0    0.00 
 292    0:50   0.00   43.8    89    0.0   358     0.4   965.8    0.00 
 292    1:00   0.00   43.8    89    0.0   358     0.1   965.7    0.00 
 292    1:10   0.00   43.7    89    0.3   335     1.1   965.4    0.00 
 292    1:20   0.00   43.4    91    0.0     0     0.0   965.3    0.00 
 292    1:30   0.00   43.3    91    0.6   178     1.6   965.1    0.00 
 292    1:40   0.00   43.1    91    0.2   208     1.0   965.1    0.00 
 292    1:50   0.00   43.0    92    1.1   184     2.2   965.2    0.00 
 292    2:00   0.00   43.4    91    0.6   162     2.1   965.2    0.00 
 292    2:10   0.00   43.8    90    0.0     0     0.0   965.2    0.00 
 292    2:20   0.00   43.8    90    0.3   154     1.0   965.1    0.00 
 292    2:30   0.00   43.9    90    0.0   154     0.5   965.0    0.00 
 292    2:40   0.00   44.0    89    0.0     0     0.0   964.8    0.00 
 292    2:50   0.00   44.3    89    0.4    26     1.3   964.7    0.00 
 292    3:00   0.00   44.5    88    0.0     0     0.0   964.5    0.00 
 292    3:10   0.00   44.8    88    0.5   196     1.5   964.5    0.00 
 292    3:20   0.00   45.0    88    0.0     0     0.0   964.5    0.00 
 292    3:30   0.00   45.1    87    0.0     0     0.0   964.5    0.00 
 292    3:40   0.00   45.3    87    0.0     0     0.0   964.5    0.00 
 292    3:50   0.00   45.5    86    0.0     0     0.0   964.6    0.00 
 292    4:00   0.00   45.7    86    0.2   202     0.9   964.6    0.00 
 292    4:10   0.00   46.0    85    0.2   198     0.8   964.6    0.00 
 292    4:20   0.00   46.3    85    0.8   182     1.5   964.7    0.00 
 292    4:30   0.00   46.6    85    0.7   185     2.0   964.6    0.00 
 292    4:40   0.00   46.8    84    0.1   215     1.0   964.6    0.00 
 292    4:50   0.00   47.0    84    0.1   216     0.7   964.6    0.00 
 292    5:00   0.00   47.0    85    0.1    87     0.9   964.5    0.00 
 292    5:10   0.00   46.9    87    0.0     0     0.0   964.4    0.00 
 292    5:20   0.00   46.7    89    0.0   324     0.4   964.4    0.00 
 292    5:30   0.00   46.7    90    0.0   324     0.4   964.6    0.00 
 292    5:40   0.00   46.6    90    0.1   324     0.5   964.5    0.00 
 292    5:50   0.00   46.7    90    0.0     0     0.0   964.4    0.00 
 292    6:00   0.00   46.8    90    0.0     0     0.0   964.3    0.00 
 292    6:10   0.00   46.8    90    0.0     0     0.0   964.2    0.00 
 292    6:20   0.00   46.8    90    0.1   324     0.7   964.2    0.00 
 292    6:30   0.00   46.8    90    0.1   324     0.7   964.1    0.00 
 292    6:40   0.00   46.9    90    0.1   324     0.6   964.1    0.00 
 292    6:50   0.00   47.0    90    0.3   324     0.7   964.1    0.00 
 292    7:00   0.01   47.2    90    0.2   324     1.0   964.0    0.00 
 292    7:10   0.01   47.4    90    1.4   186     2.1   963.9    0.00 
 292    7:20   0.03   47.6    89    0.6   189     1.9   963.9    0.00 
 292    7:30   0.04   48.0    88    0.9   193     2.1   963.9    0.00 
 292    7:40   0.04   48.4    87    0.3   206     1.7   963.9    0.00 
 292    7:50   0.06   48.8    86    0.3   199     1.5   963.9    0.00 
 292    8:00   0.07   49.3    84    0.7   182     2.1   963.9    0.00 
 292    8:10   0.08   50.0    82    0.4   158     1.2   964.0    0.00 
 292    8:20   0.07   50.9    79    0.1   195     0.8   964.0    0.00 
 292    8:30   0.08   51.4    78    0.1   280     0.6   964.0    0.00 
 292    8:40   0.08   51.9    76    0.1   358     0.7   964.1    0.00 
 292    8:50   0.08   52.4    75    0.5   345     1.9   964.1    0.00 
 292    9:00   0.09   52.4    74    0.5    86     1.6   964.1    0.00 
 292    9:10   0.12   53.1    74    0.0     0     0.0   963.9    0.00 
 292    9:20   0.12   54.1    72    0.4   342     1.9   963.9    0.00 
 292    9:30   0.09   54.0    74    0.4   131     1.6   964.1    0.00 
 292    9:40   0.10   53.4    79    1.7   183     3.1   964.1    0.00 
 292    9:50   0.14   53.0    86    1.7   151     3.7   964.0    0.00 
 292   10:00   0.09   53.3    88    0.9   115     2.4   964.0    0.00 
 292   10:10   0.10   53.4    90    1.4    68     2.6   964.1    0.00 
 292   10:20   0.11   53.5    91    1.0   137     3.0   963.9    0.00 
 292   10:30   0.16   53.9    92    1.3   319     2.8   963.7    0.00 
 292   10:40   0.12   54.5    90    0.6   330     1.8   963.7    0.00 
 292   10:50   0.13   55.2    87    0.9    18     2.6   963.6    0.00 
 292   11:00   0.20   55.8    84    0.7    82     2.7   963.3    0.00 
 292   11:10   0.24   57.0    82    0.2    51     1.5   963.3    0.00 
 292   11:20   0.34   58.6    77    1.5   281     6.7   963.1    0.00 

Return to Angelo Coast Range Reserve graphs page.


Western Regional Climate Center,wrcc@dri.edu